Terminal Aerodrome Forecast
Issued by NWS

Home | Current Version | Previous Version | Text Only | Print | Product List | Glossary On
Versions: 1 2 3 4 5 6 7 8 9 10 11 12 13 14 15
442
FTUS43 KMQT 120522
TAFCMX
TAF
KCMX 120522Z 1206/1306 31017G24KT 1SM -SHSN BLSN OVC025
      TEMPO 1206/1208 2SM -SHSN BKN035
     FM121200 34019G26KT 1/2SM -SHSN BLSN OVC010
     FM130100 33017G24KT 1SM -SHSN OVC012=

USA.gov is the U.S. government's official web portal to all federal, state and local government web resources and services.